createdAt,value
2023-12-09T00:01:55.345Z,24.50
2023-12-09T00:04:22.175Z,28.70
2023-12-09T00:06:50.394Z,27.63
2023-12-09T00:09:19.537Z,36.15
2023-12-09T00:11:46.684Z,34.42
2023-12-09T00:14:13.484Z,28.43
2023-12-09T00:16:41.575Z,27.45
2023-12-09T00:19:10.296Z,27.30
2023-12-09T00:21:37.486Z,24.00
2023-12-09T00:24:04.376Z,28.10
2023-12-09T00:26:32.102Z,26.27
2023-12-09T00:28:59.082Z,27.88
2023-12-09T00:31:26.094Z,29.75
2023-12-09T00:33:53.100Z,24.67
2023-12-09T00:36:20.070Z,28.63
2023-12-09T00:38:47.068Z,29.67
2023-12-09T00:41:13.872Z,31.52
2023-12-09T00:43:40.657Z,29.98
2023-12-09T00:46:07.776Z,22.98
2023-12-09T00:48:34.785Z,22.63
2023-12-09T00:51:01.706Z,21.70
2023-12-09T00:53:28.604Z,24.25
2023-12-09T00:55:55.333Z,26.52
2023-12-09T00:58:22.374Z,27.55
2023-12-09T01:00:49.218Z,28.48
2023-12-09T01:03:16.163Z,24.67
2023-12-09T01:05:43.000Z,26.27
2023-12-09T01:08:09.858Z,34.33
2023-12-09T01:10:36.661Z,22.13
2023-12-09T01:13:03.646Z,24.50
2023-12-09T01:15:30.562Z,22.63
2023-12-09T01:17:57.591Z,25.38
2023-12-09T01:20:25.684Z,25.02
2023-12-09T01:22:52.722Z,24.85
2023-12-09T01:25:19.533Z,32.45
2023-12-09T01:27:46.916Z,24.87
2023-12-09T01:30:14.210Z,35.17
2023-12-09T01:32:41.504Z,21.92
2023-12-09T01:35:08.563Z,23.13
2023-12-09T01:37:35.420Z,25.92
2023-12-09T01:40:02.397Z,26.00
2023-12-09T01:42:29.555Z,21.75
2023-12-09T01:44:56.684Z,25.77
2023-12-09T01:47:23.852Z,20.92
2023-12-09T01:49:51.060Z,27.40
2023-12-09T01:52:19.527Z,25.60
2023-12-09T01:54:46.879Z,21.60
2023-12-09T01:57:14.650Z,20.20
2023-12-09T01:59:41.528Z,22.42
2023-12-09T02:02:09.100Z,18.55
2023-12-09T02:04:36.222Z,16.60
2023-12-09T02:07:03.814Z,24.33
2023-12-09T02:09:30.816Z,22.98
2023-12-09T02:12:12.046Z,27.67
2023-12-09T02:14:49.556Z,25.23
2023-12-09T02:17:23.203Z,17.70
2023-12-09T02:19:50.133Z,25.48
2023-12-09T02:22:16.939Z,27.27
2023-12-09T02:24:43.814Z,19.65
2023-12-09T02:27:16.654Z,20.38
2023-12-09T02:30:04.795Z,18.30
2023-12-09T02:32:32.689Z,23.38
2023-12-09T02:35:02.287Z,17.20
2023-12-09T02:37:33.377Z,20.92
2023-12-09T02:40:01.808Z,28.67
2023-12-09T02:42:28.941Z,25.97
2023-12-09T02:44:59.373Z,28.92
2023-12-09T02:47:26.441Z,25.05
2023-12-09T02:49:53.269Z,29.40
2023-12-09T02:52:20.119Z,21.20
2023-12-09T02:54:47.550Z,26.27
2023-12-09T02:57:14.356Z,18.98
2023-12-09T02:59:41.681Z,22.38
2023-12-09T03:02:08.499Z,24.02
2023-12-09T03:04:35.449Z,24.88
2023-12-09T03:07:02.301Z,25.77
2023-12-09T03:09:29.152Z,23.13
2023-12-09T03:11:56.185Z,26.02
2023-12-09T03:14:23.761Z,25.98
2023-12-09T03:16:50.579Z,28.17
2023-12-09T03:19:17.380Z,24.47
2023-12-09T03:21:44.665Z,31.02
2023-12-09T03:24:11.544Z,24.98
2023-12-09T03:26:38.353Z,18.73
2023-12-09T03:29:05.133Z,25.70
2023-12-09T03:31:31.926Z,23.63
2023-12-09T03:33:58.822Z,29.92
2023-12-09T03:36:25.704Z,28.13
2023-12-09T03:38:52.478Z,25.15
2023-12-09T03:41:19.654Z,24.38
2023-12-09T03:43:47.078Z,17.50
2023-12-09T03:46:14.427Z,26.73
2023-12-09T03:48:41.344Z,27.77
2023-12-09T03:51:08.499Z,17.35
2023-12-09T03:53:35.382Z,20.05
2023-12-09T03:56:02.126Z,22.67
2023-12-09T03:58:28.914Z,20.00
2023-12-09T04:00:55.808Z,20.35
2023-12-09T04:03:23.336Z,24.55
2023-12-09T04:05:51.254Z,27.52
2023-12-09T04:08:18.138Z,19.67
2023-12-09T04:10:44.973Z,22.27
2023-12-09T04:13:11.757Z,25.25
2023-12-09T04:15:41.325Z,28.98
2023-12-09T04:18:08.540Z,21.25
2023-12-09T04:20:35.634Z,18.90
2023-12-09T04:23:02.418Z,23.58
2023-12-09T04:25:29.150Z,25.83
2023-12-09T04:27:55.954Z,22.70
2023-12-09T04:30:25.755Z,21.67
2023-12-09T04:32:52.753Z,19.80
2023-12-09T04:35:19.599Z,27.23
2023-12-09T04:37:46.440Z,21.95
2023-12-09T04:40:15.839Z,26.17
2023-12-09T04:42:43.968Z,25.30
2023-12-09T04:45:11.368Z,18.77
2023-12-09T04:47:38.581Z,25.67
2023-12-09T04:50:09.196Z,25.88
2023-12-09T04:52:39.145Z,18.85
2023-12-09T04:55:06.541Z,23.85
2023-12-09T04:57:33.628Z,15.60
2023-12-09T05:00:04.879Z,27.33
2023-12-09T05:02:31.693Z,26.73
2023-12-09T05:04:58.469Z,30.50
2023-12-09T05:07:27.189Z,25.58
2023-12-09T05:09:54.148Z,20.27
2023-12-09T05:12:21.153Z,26.10
2023-12-09T05:14:47.969Z,24.45
2023-12-09T05:17:16.148Z,24.00
2023-12-09T05:19:44.202Z,28.58
2023-12-09T05:22:12.418Z,30.63
2023-12-09T05:24:39.317Z,24.10
2023-12-09T05:27:06.449Z,30.60
2023-12-09T05:29:33.303Z,26.55
2023-12-09T05:32:00.395Z,20.40
2023-12-09T05:34:27.684Z,21.17
2023-12-09T05:36:54.951Z,17.63
2023-12-09T05:39:21.878Z,21.02
2023-12-09T05:41:48.710Z,30.33
2023-12-09T05:44:15.501Z,23.63
2023-12-09T05:46:42.320Z,23.97
2023-12-09T05:49:09.202Z,23.08
2023-12-09T05:51:36.154Z,18.75
2023-12-09T05:54:03.019Z,26.83
2023-12-09T05:56:29.867Z,21.00
2023-12-09T05:58:56.679Z,19.00
2023-12-09T06:01:23.609Z,25.15
2023-12-09T06:03:50.484Z,22.65
2023-12-09T06:06:17.476Z,24.10
2023-12-09T06:08:44.642Z,17.38
2023-12-09T06:11:11.655Z,30.07
2023-12-09T06:13:38.560Z,19.42
2023-12-09T06:16:05.635Z,29.65
2023-12-09T06:18:32.558Z,20.85
2023-12-09T06:20:59.489Z,18.60
2023-12-09T06:23:26.298Z,17.97
2023-12-09T06:25:53.700Z,22.17
2023-12-09T06:28:20.501Z,17.15
2023-12-09T06:30:47.442Z,16.98
2023-12-09T06:33:14.395Z,19.48
2023-12-09T06:35:41.685Z,18.67
2023-12-09T06:38:08.480Z,15.88
2023-12-09T06:40:35.342Z,19.38
2023-12-09T06:43:02.117Z,14.00
2023-12-09T06:45:28.914Z,28.35
2023-12-09T06:47:56.381Z,17.07
2023-12-09T06:50:23.300Z,12.40
2023-12-09T06:52:50.515Z,19.42
2023-12-09T06:55:17.685Z,17.83
2023-12-09T06:57:44.671Z,24.80
2023-12-09T07:00:13.814Z,19.97
2023-12-09T07:02:49.030Z,18.05
2023-12-09T07:05:23.797Z,17.80
2023-12-09T07:07:52.074Z,23.48
2023-12-09T07:10:19.563Z,16.27
2023-12-09T07:12:46.436Z,20.73
2023-12-09T07:15:13.598Z,27.13
2023-12-09T07:17:40.822Z,15.98
2023-12-09T07:20:08.359Z,16.23
2023-12-09T07:22:35.196Z,21.00
2023-12-09T07:25:02.006Z,14.55
2023-12-09T07:27:28.907Z,16.88
2023-12-09T07:29:55.870Z,20.10
2023-12-09T07:32:22.909Z,18.33
2023-12-09T07:34:49.922Z,15.03
2023-12-09T07:37:17.014Z,17.00
2023-12-09T07:39:43.815Z,17.42
2023-12-09T07:42:11.243Z,21.73
2023-12-09T07:44:38.055Z,18.58
2023-12-09T07:47:05.199Z,17.37
2023-12-09T07:49:32.343Z,18.15
2023-12-09T07:51:59.260Z,23.52
2023-12-09T07:54:26.058Z,12.63
2023-12-09T07:56:52.820Z,21.95
2023-12-09T07:59:19.542Z,17.03
2023-12-09T08:01:46.410Z,16.77
2023-12-09T08:04:13.695Z,27.10
2023-12-09T08:06:40.879Z,25.55
2023-12-09T08:09:08.479Z,15.70
2023-12-09T08:11:35.409Z,18.13
2023-12-09T08:14:02.605Z,18.38
2023-12-09T08:16:29.524Z,18.08
2023-12-09T08:18:56.514Z,9.75
2023-12-09T08:21:25.424Z,14.98
2023-12-09T08:23:52.373Z,15.43
2023-12-09T08:26:19.854Z,13.25
2023-12-09T08:28:46.926Z,18.23
2023-12-09T08:31:13.871Z,20.27
2023-12-09T08:33:42.135Z,18.75
2023-12-09T08:36:09.961Z,16.17
2023-12-09T08:38:36.890Z,16.73
2023-12-09T08:41:04.155Z,18.05
2023-12-09T08:43:31.177Z,16.17
2023-12-09T08:45:57.920Z,17.33
2023-12-09T08:48:25.557Z,20.03
2023-12-09T08:50:52.577Z,15.50
2023-12-09T08:53:19.396Z,13.70
2023-12-09T08:55:46.227Z,15.75
2023-12-09T08:58:13.134Z,16.73
2023-12-09T09:00:40.576Z,16.20
2023-12-09T09:03:08.058Z,13.73
2023-12-09T09:05:35.074Z,17.50
2023-12-09T09:08:02.067Z,11.30
2023-12-09T09:10:29.180Z,13.35
2023-12-09T09:12:56.017Z,10.93
2023-12-09T09:15:22.993Z,12.02
2023-12-09T09:17:49.990Z,14.82
2023-12-09T09:20:16.850Z,17.85
2023-12-09T09:22:46.314Z,17.08
2023-12-09T09:25:14.647Z,13.87
2023-12-09T09:27:41.620Z,13.25
2023-12-09T09:30:09.026Z,12.82
2023-12-09T09:32:35.956Z,14.93
2023-12-09T09:35:04.304Z,13.65
2023-12-09T09:37:31.265Z,12.63
2023-12-09T09:39:58.129Z,11.75
2023-12-09T09:42:31.258Z,15.20
2023-12-09T09:45:30.405Z,13.90
2023-12-09T09:48:06.624Z,12.43
2023-12-09T09:50:46.617Z,11.10
2023-12-09T09:53:17.410Z,13.63
2023-12-09T09:55:44.731Z,10.82
2023-12-09T09:58:14.139Z,15.65
2023-12-09T10:00:41.155Z,16.33
2023-12-09T10:03:08.257Z,16.67
2023-12-09T10:05:35.166Z,13.32
2023-12-09T10:08:01.983Z,10.38
2023-12-09T10:10:30.949Z,11.45
2023-12-09T10:12:58.005Z,12.77
2023-12-09T10:15:24.818Z,10.03
2023-12-09T10:17:51.805Z,14.00
2023-12-09T10:20:18.670Z,10.07
2023-12-09T10:22:48.011Z,15.15
2023-12-09T10:25:24.738Z,7.85
2023-12-09T10:27:52.298Z,13.43
2023-12-09T10:30:22.015Z,16.27
2023-12-09T10:32:49.472Z,15.52
2023-12-09T10:35:20.376Z,9.75
2023-12-09T10:37:50.871Z,15.93
2023-12-09T10:40:22.189Z,13.73
2023-12-09T10:42:51.184Z,7.78
2023-12-09T10:45:18.116Z,11.35
2023-12-09T10:47:45.080Z,15.88
2023-12-09T10:50:13.402Z,9.15
2023-12-09T10:52:40.453Z,17.60
2023-12-09T10:55:07.773Z,9.20
2023-12-09T10:57:35.028Z,11.85
2023-12-09T11:00:09.066Z,15.27
2023-12-09T11:02:37.204Z,7.75
2023-12-09T11:05:04.612Z,9.23
2023-12-09T11:07:33.697Z,10.43
2023-12-09T11:10:00.932Z,10.07
2023-12-09T11:12:29.232Z,9.43
2023-12-09T11:14:56.583Z,8.55
2023-12-09T11:17:36.512Z,10.93
2023-12-09T11:20:11.521Z,11.23
2023-12-09T11:22:41.249Z,11.40
2023-12-09T11:25:13.303Z,8.75
2023-12-09T11:27:40.393Z,9.13
2023-12-09T11:30:07.905Z,8.87
2023-12-09T11:32:36.391Z,6.25
2023-12-09T11:35:03.701Z,8.20
2023-12-09T11:37:31.269Z,11.98
2023-12-09T11:39:59.132Z,11.52
2023-12-09T11:42:26.946Z,10.17
2023-12-09T11:44:54.329Z,11.85
2023-12-09T11:47:22.789Z,9.88
2023-12-09T11:49:50.175Z,8.75
2023-12-09T11:52:16.933Z,8.15
2023-12-09T11:54:43.779Z,11.00
2023-12-09T11:57:10.609Z,11.35
2023-12-09T11:59:37.780Z,7.10
2023-12-09T12:02:04.804Z,15.25
2023-12-09T12:04:37.437Z,9.50
2023-12-09T12:07:05.676Z,12.47
2023-12-09T12:09:32.488Z,10.30
2023-12-09T12:11:59.468Z,7.20
2023-12-09T12:14:26.700Z,7.32
2023-12-09T12:16:53.596Z,9.30
2023-12-09T12:19:20.569Z,8.40
2023-12-09T12:21:56.206Z,8.95
2023-12-09T12:24:23.124Z,6.97
2023-12-09T12:26:50.023Z,8.90
2023-12-09T12:29:20.092Z,5.93
2023-12-09T12:31:51.026Z,4.87
2023-12-09T12:34:19.363Z,8.82
2023-12-09T12:36:48.247Z,5.53
2023-12-09T12:39:16.283Z,6.75
2023-12-09T12:41:43.447Z,9.63
2023-12-09T12:44:12.336Z,7.20
2023-12-09T12:46:39.240Z,6.18
2023-12-09T12:49:06.833Z,7.28
2023-12-09T12:51:34.167Z,9.23
2023-12-09T12:54:01.238Z,5.60
2023-12-09T12:56:28.609Z,11.93
2023-12-09T12:58:55.421Z,4.68
2023-12-09T13:01:22.331Z,7.38
2023-12-09T13:03:49.689Z,7.07
2023-12-09T13:06:17.081Z,5.55
2023-12-09T13:08:44.236Z,4.67
2023-12-09T13:11:11.833Z,6.90
2023-12-09T13:13:38.665Z,7.65
2023-12-09T13:16:06.104Z,6.03
2023-12-09T13:18:33.245Z,7.35
2023-12-09T13:21:00.267Z,10.10
2023-12-09T13:23:28.490Z,5.90
2023-12-09T13:25:55.332Z,6.38
2023-12-09T13:28:22.219Z,6.25
2023-12-09T13:30:49.234Z,4.00
2023-12-09T13:33:16.304Z,5.20
2023-12-09T13:35:43.296Z,14.00
2023-12-09T13:38:10.220Z,6.00
2023-12-09T13:40:39.689Z,9.68
2023-12-09T13:43:06.628Z,7.13
2023-12-09T13:45:37.075Z,7.80
2023-12-09T13:48:05.038Z,10.93
2023-12-09T13:50:32.041Z,7.63
2023-12-09T13:52:59.061Z,8.98
2023-12-09T13:55:27.268Z,6.13
2023-12-09T13:57:54.167Z,3.90
2023-12-09T14:00:21.225Z,6.05
2023-12-09T14:02:48.154Z,3.67
2023-12-09T14:05:15.822Z,5.25
2023-12-09T14:07:42.971Z,5.88
2023-12-09T14:10:10.304Z,6.00
2023-12-09T14:12:37.210Z,5.07
2023-12-09T14:15:04.295Z,4.75
2023-12-09T14:17:32.780Z,4.95
2023-12-09T14:20:00.581Z,2.28
2023-12-09T14:22:27.785Z,4.10
2023-12-09T14:24:55.004Z,2.35
2023-12-09T14:27:21.997Z,3.00
2023-12-09T14:29:48.939Z,2.05
2023-12-09T14:32:15.816Z,3.33
2023-12-09T14:34:43.087Z,1.70
2023-12-09T14:37:10.232Z,5.18
2023-12-09T14:39:37.305Z,4.32
2023-12-09T14:42:04.452Z,6.05
2023-12-09T14:44:31.468Z,3.05
2023-12-09T14:46:58.458Z,3.37
2023-12-09T14:49:25.751Z,3.13
2023-12-09T14:51:52.739Z,3.13
2023-12-09T14:54:20.737Z,2.50
2023-12-09T14:56:47.940Z,2.08
2023-12-09T14:59:16.463Z,2.60
2023-12-09T15:01:43.500Z,5.55
2023-12-09T15:04:10.560Z,3.90
2023-12-09T15:06:37.720Z,3.45
2023-12-09T15:09:05.303Z,2.70
2023-12-09T15:11:32.220Z,3.17
2023-12-09T15:13:59.079Z,6.55
2023-12-09T15:16:26.031Z,2.50
2023-12-09T15:18:53.084Z,2.97
2023-12-09T15:21:21.500Z,3.45
2023-12-09T15:23:48.377Z,3.07
2023-12-09T15:26:15.505Z,3.83
2023-12-09T15:28:42.529Z,3.05
2023-12-09T15:31:09.387Z,2.67
2023-12-09T15:33:36.656Z,3.47
2023-12-09T15:36:04.349Z,1.70
2023-12-09T15:38:32.215Z,2.10
2023-12-09T15:40:59.086Z,2.92
2023-12-09T15:43:26.062Z,1.80
2023-12-09T15:45:55.986Z,3.25
2023-12-09T15:48:27.080Z,2.97
2023-12-09T15:50:54.732Z,2.28
2023-12-09T15:53:21.709Z,4.28
2023-12-09T15:55:48.620Z,3.58
2023-12-09T15:58:16.101Z,1.65
2023-12-09T16:00:43.142Z,2.77
2023-12-09T16:03:12.992Z,1.65
2023-12-09T16:05:40.454Z,1.60
2023-12-09T16:08:07.591Z,3.00
2023-12-09T16:10:34.535Z,2.03
2023-12-09T16:13:01.596Z,3.20
2023-12-09T16:15:28.477Z,1.75
2023-12-09T16:17:55.987Z,2.38
2023-12-09T16:20:23.425Z,3.05
2023-12-09T16:22:50.463Z,3.00
2023-12-09T16:25:17.331Z,3.57
2023-12-09T16:27:44.313Z,2.17
2023-12-09T16:30:11.713Z,3.05
2023-12-09T16:32:38.839Z,2.17
2023-12-09T16:35:06.861Z,2.58
2023-12-09T16:37:35.248Z,3.03
2023-12-09T16:40:02.170Z,4.18
2023-12-09T16:42:29.487Z,3.45
2023-12-09T16:44:56.684Z,3.72
2023-12-09T16:47:23.617Z,2.45
2023-12-09T16:49:50.640Z,4.13
2023-12-09T16:52:17.526Z,2.35
2023-12-09T16:54:44.490Z,4.63
2023-12-09T16:57:15.815Z,4.25
2023-12-09T16:59:42.884Z,5.13
2023-12-09T17:02:09.749Z,2.70
2023-12-09T17:04:36.774Z,5.55
2023-12-09T17:07:03.899Z,5.30
2023-12-09T17:09:32.056Z,3.22
2023-12-09T17:11:59.034Z,4.70
2023-12-09T17:14:26.778Z,4.10
2023-12-09T17:16:55.197Z,2.65
2023-12-09T17:19:22.440Z,4.57
2023-12-09T17:21:49.683Z,3.53
2023-12-09T17:24:16.720Z,3.80
2023-12-09T17:26:43.647Z,3.13
2023-12-09T17:29:10.540Z,5.57
2023-12-09T17:31:41.078Z,3.70
2023-12-09T17:34:10.983Z,3.38
2023-12-09T17:36:38.138Z,3.95
2023-12-09T17:39:07.312Z,4.60
2023-12-09T17:41:34.211Z,3.55
2023-12-09T17:44:01.057Z,3.47
2023-12-09T17:46:28.073Z,4.35
2023-12-09T17:48:55.696Z,3.38
2023-12-09T17:51:23.086Z,3.70
2023-12-09T17:53:50.102Z,5.03
2023-12-09T17:56:16.984Z,3.50
2023-12-09T17:58:43.800Z,4.22
2023-12-09T18:01:10.837Z,3.85
2023-12-09T18:03:37.972Z,5.37
2023-12-09T18:06:05.540Z,5.18
2023-12-09T18:08:34.229Z,5.10
2023-12-09T18:11:01.205Z,6.20
2023-12-09T18:13:28.234Z,4.13
2023-12-09T18:15:55.189Z,4.60
2023-12-09T18:18:22.496Z,6.50
2023-12-09T18:20:49.563Z,6.18
2023-12-09T18:23:16.420Z,7.45
2023-12-09T18:25:43.409Z,6.75
2023-12-09T18:28:10.305Z,8.20
2023-12-09T18:30:38.181Z,10.57
2023-12-09T18:33:05.254Z,8.25
2023-12-09T18:35:32.247Z,8.77
2023-12-09T18:38:00.376Z,11.85
2023-12-09T18:40:27.649Z,9.97
2023-12-09T18:42:54.622Z,11.07
2023-12-09T18:45:21.598Z,14.40
2023-12-09T18:47:48.749Z,18.38
2023-12-09T18:50:15.865Z,14.35
2023-12-09T18:52:43.154Z,15.30
2023-12-09T18:55:10.044Z,14.32
2023-12-09T18:57:37.500Z,13.63
2023-12-09T19:00:05.782Z,18.35
2023-12-09T19:02:33.231Z,17.23
2023-12-09T19:05:03.045Z,14.30
2023-12-09T19:07:30.091Z,20.13
2023-12-09T19:09:56.964Z,20.13
2023-12-09T19:12:24.040Z,15.27
2023-12-09T19:14:50.974Z,21.38
2023-12-09T19:17:17.992Z,25.07
2023-12-09T19:19:45.603Z,19.45
2023-12-09T19:22:12.560Z,21.63
2023-12-09T19:24:39.575Z,21.02
2023-12-09T19:27:08.573Z,18.80
2023-12-09T19:29:36.529Z,24.50
2023-12-09T19:32:03.985Z,23.33
2023-12-09T19:34:31.049Z,18.23
2023-12-09T19:36:58.150Z,20.15
2023-12-09T19:39:25.147Z,30.70
2023-12-09T19:41:52.029Z,21.30
2023-12-09T19:44:18.888Z,20.55
2023-12-09T19:46:45.884Z,24.25
2023-12-09T19:49:12.872Z,25.23
2023-12-09T19:51:40.211Z,22.02
2023-12-09T19:54:07.245Z,24.23
2023-12-09T19:56:34.132Z,17.63
2023-12-09T19:59:01.373Z,25.33
2023-12-09T20:01:28.364Z,20.77
2023-12-09T20:03:55.538Z,24.75
2023-12-09T20:06:22.829Z,21.77
2023-12-09T20:08:49.740Z,24.02
2023-12-09T20:11:17.527Z,29.13
2023-12-09T20:13:45.614Z,22.63
2023-12-09T20:16:12.720Z,21.83
2023-12-09T20:18:39.790Z,24.93
2023-12-09T20:21:08.096Z,24.17
2023-12-09T20:23:35.209Z,20.23
2023-12-09T20:26:02.358Z,19.70
2023-12-09T20:28:29.739Z,28.90
2023-12-09T20:30:58.290Z,16.73
2023-12-09T20:33:25.379Z,15.00
2023-12-09T20:35:52.315Z,21.20
2023-12-09T20:38:19.673Z,27.20
2023-12-09T20:40:46.461Z,23.73
2023-12-09T20:43:13.424Z,14.40
2023-12-09T20:45:40.521Z,17.27
2023-12-09T20:48:07.729Z,21.60
2023-12-09T20:50:34.646Z,28.80
2023-12-09T20:53:03.115Z,13.48
2023-12-09T20:55:30.155Z,19.60
2023-12-09T20:57:57.032Z,17.10
2023-12-09T21:00:23.943Z,19.40
2023-12-09T21:02:50.855Z,14.52
2023-12-09T21:05:17.866Z,20.98
2023-12-09T21:07:45.993Z,17.53
2023-12-09T21:10:13.272Z,20.65
2023-12-09T21:12:41.064Z,17.60
2023-12-09T21:15:08.290Z,21.17
2023-12-09T21:17:35.350Z,19.38
2023-12-09T21:20:03.556Z,19.33
2023-12-09T21:22:30.885Z,19.65
2023-12-09T21:24:58.862Z,19.95
2023-12-09T21:27:25.960Z,19.77
2023-12-09T21:29:53.270Z,24.42
2023-12-09T21:32:20.184Z,21.60
2023-12-09T21:34:47.344Z,23.08
2023-12-09T21:37:14.272Z,21.02
2023-12-09T21:39:41.713Z,17.63
2023-12-09T21:42:08.892Z,24.95
2023-12-09T21:44:36.004Z,25.30
2023-12-09T21:47:04.358Z,16.13
2023-12-09T21:49:31.324Z,22.27
2023-12-09T21:51:58.672Z,15.95
2023-12-09T21:54:25.732Z,15.32
2023-12-09T21:56:52.612Z,19.43
2023-12-09T21:59:19.609Z,24.48
2023-12-09T22:01:48.396Z,22.33
2023-12-09T22:04:16.768Z,20.63
2023-12-09T22:06:43.685Z,18.48
2023-12-09T22:09:14.277Z,29.90
2023-12-09T22:11:41.095Z,23.25
2023-12-09T22:14:07.961Z,23.45
2023-12-09T22:16:34.897Z,20.98
2023-12-09T22:19:01.950Z,24.50
2023-12-09T22:21:29.815Z,25.00
2023-12-09T22:23:56.804Z,26.42
2023-12-09T22:26:25.116Z,20.23
2023-12-09T22:28:52.513Z,25.60
2023-12-09T22:31:19.410Z,21.08
2023-12-09T22:33:50.828Z,19.93
2023-12-09T22:36:21.855Z,23.05
2023-12-09T22:38:49.481Z,27.08
2023-12-09T22:41:22.170Z,23.20
2023-12-09T22:43:49.774Z,20.73
2023-12-09T22:46:31.548Z,27.90
2023-12-09T22:48:59.943Z,23.88
2023-12-09T22:51:28.214Z,18.77
2023-12-09T22:53:55.396Z,23.13
2023-12-09T22:56:23.019Z,22.23
2023-12-09T22:58:50.676Z,21.80
2023-12-09T23:01:25.719Z,23.52
2023-12-09T23:03:52.961Z,22.33
2023-12-09T23:06:21.411Z,29.10
2023-12-09T23:08:49.062Z,18.67
2023-12-09T23:11:16.372Z,20.77
2023-12-09T23:13:43.289Z,31.25
2023-12-09T23:16:11.228Z,28.25
2023-12-09T23:18:39.359Z,29.02
2023-12-09T23:21:07.056Z,26.42
2023-12-09T23:23:35.052Z,32.67
2023-12-09T23:26:02.153Z,19.45
2023-12-09T23:28:29.046Z,15.90
2023-12-09T23:30:56.064Z,20.15
2023-12-09T23:33:23.801Z,27.90
2023-12-09T23:35:50.796Z,23.80
2023-12-09T23:38:17.854Z,26.05
2023-12-09T23:40:44.969Z,27.83
2023-12-09T23:43:11.980Z,18.95
2023-12-09T23:45:38.938Z,25.45
2023-12-09T23:48:06.973Z,15.17
2023-12-09T23:50:34.194Z,34.90
2023-12-09T23:53:01.150Z,28.70
2023-12-09T23:55:28.094Z,21.63
2023-12-09T23:57:55.047Z,25.05
